Milwaukee, Wisconsin
Traffic Map
Current Weather Conditions
Milwaukee, Wisconsin
Overcast
Overcast

Feels Like: -2°
Wind Chill: -2° Ceiling: 15000
Heat Index: Visibility: 10mi
Dew Point: -2° Wind: 21mph
Humidity: 68% Direction: 220° (SW)
Pressure: 29.77in Gusts: 26mph
Raw Report DataKMKE 071252Z 22018G23KT 10SM FEW090 SCT110 OVC150 03/M02 A2977 RMK AO2 SLP089 T00331022
Traffic Incident Summary
Active as of:
Severity:
Category:
InformationThere was an issue retrieving the traffic information for this location. Please try a different location or try again shortly.
Advertisements
Track Severe Weather on mobile